sensor_id;sensor_type;location;lat;lon;timestamp;temperature;humidity
14093;DHT22;7123;49.468;10.992;2024-01-25T00:00:20;8.80;99.90
14093;DHT22;7123;49.468;10.992;2024-01-25T00:02:47;8.70;99.90
14093;DHT22;7123;49.468;10.992;2024-01-25T00:05:14;8.70;99.90
14093;DHT22;7123;49.468;10.992;2024-01-25T00:07:51;8.70;99.90
14093;DHT22;7123;49.468;10.992;2024-01-25T00:10:18;8.70;99.90
14093;DHT22;7123;49.468;10.992;2024-01-25T00:12:45;8.70;99.90
14093;DHT22;7123;49.468;10.992;2024-01-25T00:15:12;8.80;99.90
14093;DHT22;7123;49.468;10.992;2024-01-25T00:17:39;8.80;99.90
14093;DHT22;7123;49.468;10.992;2024-01-25T00:20:08;8.80;99.90
14093;DHT22;7123;49.468;10.992;2024-01-25T00:22:36;8.80;99.90
14093;DHT22;7123;49.468;10.992;2024-01-25T00:25:05;8.80;99.90
14093;DHT22;7123;49.468;10.992;2024-01-25T00:27:32;8.80;99.90
14093;DHT22;7123;49.468;10.992;2024-01-25T00:29:58;8.80;99.90
14093;DHT22;7123;49.468;10.992;2024-01-25T00:32:25;8.80;99.90
14093;DHT22;7123;49.468;10.992;2024-01-25T00:34:52;8.80;99.90
14093;DHT22;7123;49.468;10.992;2024-01-25T00:37:19;8.80;99.90
14093;DHT22;7123;49.468;10.992;2024-01-25T00:39:47;8.80;99.90
14093;DHT22;7123;49.468;10.992;2024-01-25T00:42:17;8.80;99.90
14093;DHT22;7123;49.468;10.992;2024-01-25T00:44:48;8.80;99.90
14093;DHT22;7123;49.468;10.992;2024-01-25T00:47:15;8.80;99.90
14093;DHT22;7123;49.468;10.992;2024-01-25T00:49:42;8.80;99.90
14093;DHT22;7123;49.468;10.992;2024-01-25T00:52:10;8.80;99.90
14093;DHT22;7123;49.468;10.992;2024-01-25T00:54:37;8.80;99.90
14093;DHT22;7123;49.468;10.992;2024-01-25T00:57:04;8.80;99.90
14093;DHT22;7123;49.468;10.992;2024-01-25T00:59:31;8.70;99.90
14093;DHT22;7123;49.468;10.992;2024-01-25T01:01:58;8.70;99.90
14093;DHT22;7123;49.468;10.992;2024-01-25T01:04:32;8.70;99.90
14093;DHT22;7123;49.468;10.992;2024-01-25T01:07:14;8.70;99.90
14093;DHT22;7123;49.468;10.992;2024-01-25T01:09:41;8.70;99.90
14093;DHT22;7123;49.468;10.992;2024-01-25T01:12:08;8.70;99.90
14093;DHT22;7123;49.468;10.992;2024-01-25T01:14:35;8.70;99.90
14093;DHT22;7123;49.468;10.992;2024-01-25T01:17:01;8.70;99.90
14093;DHT22;7123;49.468;10.992;2024-01-25T01:19:28;8.70;99.90
14093;DHT22;7123;49.468;10.992;2024-01-25T01:21:55;8.70;99.90
14093;DHT22;7123;49.468;10.992;2024-01-25T01:24:22;8.70;99.90
14093;DHT22;7123;49.468;10.992;2024-01-25T01:26:49;8.70;99.90
14093;DHT22;7123;49.468;10.992;2024-01-25T01:29:17;8.70;99.90
14093;DHT22;7123;49.468;10.992;2024-01-25T01:31:45;8.70;99.90
14093;DHT22;7123;49.468;10.992;2024-01-25T01:34:12;8.70;99.90
14093;DHT22;7123;49.468;10.992;2024-01-25T01:36:40;8.70;99.90
14093;DHT22;7123;49.468;10.992;2024-01-25T01:39:07;8.70;99.90
14093;DHT22;7123;49.468;10.992;2024-01-25T01:41:34;8.70;99.90
14093;DHT22;7123;49.468;10.992;2024-01-25T01:44:01;8.80;99.90
14093;DHT22;7123;49.468;10.992;2024-01-25T01:46:38;8.80;99.90
14093;DHT22;7123;49.468;10.992;2024-01-25T01:49:07;8.70;99.90
14093;DHT22;7123;49.468;10.992;2024-01-25T01:51:38;8.70;99.90
14093;DHT22;7123;49.468;10.992;2024-01-25T01:54:07;8.70;99.90
14093;DHT22;7123;49.468;10.992;2024-01-25T01:56:34;8.70;99.90
14093;DHT22;7123;49.468;10.992;2024-01-25T01:59:04;8.70;99.90
14093;DHT22;7123;49.468;10.992;2024-01-25T02:01:32;8.70;99.90
14093;DHT22;7123;49.468;10.992;2024-01-25T02:04:00;8.70;99.90
14093;DHT22;7123;49.468;10.992;2024-01-25T02:06:27;8.70;99.90
14093;DHT22;7123;49.468;10.992;2024-01-25T02:08:54;8.60;99.90
14093;DHT22;7123;49.468;10.992;2024-01-25T02:11:25;8.60;99.90
14093;DHT22;7123;49.468;10.992;2024-01-25T02:13:52;8.50;99.90
14093;DHT22;7123;49.468;10.992;2024-01-25T02:16:19;8.60;99.90
14093;DHT22;7123;49.468;10.992;2024-01-25T02:18:47;8.60;99.90
14093;DHT22;7123;49.468;10.992;2024-01-25T02:21:15;8.50;99.90
14093;DHT22;7123;49.468;10.992;2024-01-25T02:23:41;8.50;99.90
14093;DHT22;7123;49.468;10.992;2024-01-25T02:26:08;8.50;99.90
14093;DHT22;7123;49.468;10.992;2024-01-25T02:28:35;8.50;99.90
14093;DHT22;7123;49.468;10.992;2024-01-25T02:31:02;8.60;99.90
14093;DHT22;7123;49.468;10.992;2024-01-25T02:33:30;8.50;99.90
14093;DHT22;7123;49.468;10.992;2024-01-25T02:35:57;8.40;99.90
14093;DHT22;7123;49.468;10.992;2024-01-25T02:38:24;8.40;99.90
14093;DHT22;7123;49.468;10.992;2024-01-25T02:40:51;8.40;99.90
14093;DHT22;7123;49.468;10.992;2024-01-25T02:43:20;8.50;99.90
14093;DHT22;7123;49.468;10.992;2024-01-25T02:45:47;8.50;99.90
14093;DHT22;7123;49.468;10.992;2024-01-25T02:48:16;8.40;99.90
14093;DHT22;7123;49.468;10.992;2024-01-25T02:50:43;8.50;99.90
14093;DHT22;7123;49.468;10.992;2024-01-25T02:53:10;8.50;99.90
14093;DHT22;7123;49.468;10.992;2024-01-25T02:55:37;8.50;99.90
14093;DHT22;7123;49.468;10.992;2024-01-25T02:58:04;8.50;99.90
14093;DHT22;7123;49.468;10.992;2024-01-25T03:00:30;8.50;99.90
14093;DHT22;7123;49.468;10.992;2024-01-25T03:02:57;8.50;99.90
14093;DHT22;7123;49.468;10.992;2024-01-25T03:05:24;8.40;99.90
14093;DHT22;7123;49.468;10.992;2024-01-25T03:07:51;8.40;99.90
14093;DHT22;7123;49.468;10.992;2024-01-25T03:10:18;8.50;99.90
14093;DHT22;7123;49.468;10.992;2024-01-25T03:12:45;8.40;99.90
14093;DHT22;7123;49.468;10.992;2024-01-25T03:15:12;8.40;99.90
14093;DHT22;7123;49.468;10.992;2024-01-25T03:17:39;8.40;99.90
14093;DHT22;7123;49.468;10.992;2024-01-25T03:20:06;8.40;99.90
14093;DHT22;7123;49.468;10.992;2024-01-25T03:22:33;8.50;99.90
14093;DHT22;7123;49.468;10.992;2024-01-25T03:25:00;8.40;99.90
14093;DHT22;7123;49.468;10.992;2024-01-25T03:27:27;8.40;99.90
14093;DHT22;7123;49.468;10.992;2024-01-25T03:29:54;8.50;99.90
14093;DHT22;7123;49.468;10.992;2024-01-25T03:32:21;8.40;99.90
14093;DHT22;7123;49.468;10.992;2024-01-25T03:34:48;8.40;99.90
14093;DHT22;7123;49.468;10.992;2024-01-25T03:37:16;8.40;99.90
14093;DHT22;7123;49.468;10.992;2024-01-25T03:39:43;8.40;99.90
14093;DHT22;7123;49.468;10.992;2024-01-25T03:42:10;8.40;99.90
14093;DHT22;7123;49.468;10.992;2024-01-25T03:44:37;8.40;99.90
14093;DHT22;7123;49.468;10.992;2024-01-25T03:47:04;8.40;99.90
14093;DHT22;7123;49.468;10.992;2024-01-25T03:49:30;8.40;99.90
14093;DHT22;7123;49.468;10.992;2024-01-25T03:51:57;8.40;99.90
14093;DHT22;7123;49.468;10.992;2024-01-25T03:54:24;8.40;99.90
14093;DHT22;7123;49.468;10.992;2024-01-25T03:56:51;8.30;99.90
14093;DHT22;7123;49.468;10.992;2024-01-25T03:59:18;8.30;99.90
14093;DHT22;7123;49.468;10.992;2024-01-25T04:01:46;8.40;99.90
14093;DHT22;7123;49.468;10.992;2024-01-25T04:04:14;8.40;99.90
14093;DHT22;7123;49.468;10.992;2024-01-25T04:06:44;8.40;99.90
14093;DHT22;7123;49.468;10.992;2024-01-25T04:09:15;8.40;99.90
14093;DHT22;7123;49.468;10.992;2024-01-25T04:11:41;8.40;99.90
14093;DHT22;7123;49.468;10.992;2024-01-25T04:14:08;8.40;99.90
14093;DHT22;7123;49.468;10.992;2024-01-25T04:16:35;8.30;99.90
14093;DHT22;7123;49.468;10.992;2024-01-25T04:19:02;8.30;99.90
14093;DHT22;7123;49.468;10.992;2024-01-25T04:21:29;8.40;99.90
14093;DHT22;7123;49.468;10.992;2024-01-25T04:23:56;8.30;99.90
14093;DHT22;7123;49.468;10.992;2024-01-25T04:26:23;8.30;99.90
14093;DHT22;7123;49.468;10.992;2024-01-25T04:28:50;8.30;99.90
14093;DHT22;7123;49.468;10.992;2024-01-25T04:31:17;8.30;99.90
14093;DHT22;7123;49.468;10.992;2024-01-25T04:33:44;8.30;99.90
14093;DHT22;7123;49.468;10.992;2024-01-25T04:36:15;8.30;99.90
14093;DHT22;7123;49.468;10.992;2024-01-25T04:38:42;8.20;99.90
14093;DHT22;7123;49.468;10.992;2024-01-25T04:41:09;8.20;99.90
14093;DHT22;7123;49.468;10.992;2024-01-25T04:43:37;8.20;99.90
14093;DHT22;7123;49.468;10.992;2024-01-25T04:46:04;8.20;99.90
14093;DHT22;7123;49.468;10.992;2024-01-25T04:48:31;8.20;99.90
14093;DHT22;7123;49.468;10.992;2024-01-25T04:50:59;8.20;99.90
14093;DHT22;7123;49.468;10.992;2024-01-25T04:53:27;8.20;99.90
14093;DHT22;7123;49.468;10.992;2024-01-25T04:55:54;8.20;99.90
14093;DHT22;7123;49.468;10.992;2024-01-25T04:58:22;8.10;99.90
14093;DHT22;7123;49.468;10.992;2024-01-25T05:00:49;8.20;99.90
14093;DHT22;7123;49.468;10.992;2024-01-25T05:03:18;8.10;99.90
14093;DHT22;7123;49.468;10.992;2024-01-25T05:05:46;8.10;99.90
14093;DHT22;7123;49.468;10.992;2024-01-25T05:08:13;8.00;99.90
14093;DHT22;7123;49.468;10.992;2024-01-25T05:10:41;8.00;99.90
14093;DHT22;7123;49.468;10.992;2024-01-25T05:13:08;8.00;99.90
14093;DHT22;7123;49.468;10.992;2024-01-25T05:15:36;8.10;99.90
14093;DHT22;7123;49.468;10.992;2024-01-25T05:18:04;8.10;99.90
14093;DHT22;7123;49.468;10.992;2024-01-25T05:20:31;8.10;99.90
14093;DHT22;7123;49.468;10.992;2024-01-25T05:23:01;8.10;99.90
14093;DHT22;7123;49.468;10.992;2024-01-25T05:25:28;8.20;99.90
14093;DHT22;7123;49.468;10.992;2024-01-25T05:27:56;8.20;99.90
14093;DHT22;7123;49.468;10.992;2024-01-25T05:30:24;8.20;99.90
14093;DHT22;7123;49.468;10.992;2024-01-25T05:32:51;8.20;99.90
14093;DHT22;7123;49.468;10.992;2024-01-25T05:35:20;8.20;99.90
14093;DHT22;7123;49.468;10.992;2024-01-25T05:37:47;8.40;99.90
14093;DHT22;7123;49.468;10.992;2024-01-25T05:40:14;8.10;99.90
14093;DHT22;7123;49.468;10.992;2024-01-25T05:42:41;8.10;99.90
14093;DHT22;7123;49.468;10.992;2024-01-25T05:45:08;8.00;99.90
14093;DHT22;7123;49.468;10.992;2024-01-25T05:47:36;8.00;99.90
14093;DHT22;7123;49.468;10.992;2024-01-25T05:50:03;8.10;99.90
14093;DHT22;7123;49.468;10.992;2024-01-25T05:52:31;8.10;99.90
14093;DHT22;7123;49.468;10.992;2024-01-25T05:54:58;8.10;99.90
14093;DHT22;7123;49.468;10.992;2024-01-25T05:57:31;8.10;99.90
14093;DHT22;7123;49.468;10.992;2024-01-25T05:59:58;8.10;99.90
14093;DHT22;7123;49.468;10.992;2024-01-25T06:02:24;8.10;99.90
14093;DHT22;7123;49.468;10.992;2024-01-25T06:04:52;8.10;99.90
14093;DHT22;7123;49.468;10.992;2024-01-25T06:07:19;8.00;99.90
14093;DHT22;7123;49.468;10.992;2024-01-25T06:09:47;8.10;99.90
14093;DHT22;7123;49.468;10.992;2024-01-25T06:12:13;8.10;99.90
14093;DHT22;7123;49.468;10.992;2024-01-25T06:14:40;8.00;99.90
14093;DHT22;7123;49.468;10.992;2024-01-25T06:17:07;8.00;99.90
14093;DHT22;7123;49.468;10.992;2024-01-25T06:19:34;8.00;99.90
14093;DHT22;7123;49.468;10.992;2024-01-25T06:22:01;8.00;99.90
14093;DHT22;7123;49.468;10.992;2024-01-25T06:24:29;8.00;99.90
14093;DHT22;7123;49.468;10.992;2024-01-25T06:26:56;8.00;99.90
14093;DHT22;7123;49.468;10.992;2024-01-25T06:29:23;8.00;99.90
14093;DHT22;7123;49.468;10.992;2024-01-25T06:31:50;7.90;99.90
14093;DHT22;7123;49.468;10.992;2024-01-25T06:34:17;7.90;99.90
14093;DHT22;7123;49.468;10.992;2024-01-25T06:36:44;8.10;99.90
14093;DHT22;7123;49.468;10.992;2024-01-25T06:39:12;7.80;99.90
14093;DHT22;7123;49.468;10.992;2024-01-25T06:41:39;7.80;99.90
14093;DHT22;7123;49.468;10.992;2024-01-25T06:44:06;7.70;99.90
14093;DHT22;7123;49.468;10.992;2024-01-25T06:46:32;7.60;99.90
14093;DHT22;7123;49.468;10.992;2024-01-25T06:48:59;7.60;99.90
14093;DHT22;7123;49.468;10.992;2024-01-25T06:51:26;7.70;99.90
14093;DHT22;7123;49.468;10.992;2024-01-25T06:53:53;7.50;99.90
14093;DHT22;7123;49.468;10.992;2024-01-25T06:56:20;7.60;99.90
14093;DHT22;7123;49.468;10.992;2024-01-25T06:58:47;7.60;99.90
14093;DHT22;7123;49.468;10.992;2024-01-25T07:01:23;7.50;99.90
14093;DHT22;7123;49.468;10.992;2024-01-25T07:03:50;7.40;99.90
14093;DHT22;7123;49.468;10.992;2024-01-25T07:06:18;7.40;99.90
14093;DHT22;7123;49.468;10.992;2024-01-25T07:08:46;7.40;99.90
14093;DHT22;7123;49.468;10.992;2024-01-25T07:11:12;7.30;99.90
14093;DHT22;7123;49.468;10.992;2024-01-25T07:13:41;7.30;99.90
14093;DHT22;7123;49.468;10.992;2024-01-25T07:16:07;7.40;99.90
14093;DHT22;7123;49.468;10.992;2024-01-25T07:18:34;7.30;99.90
14093;DHT22;7123;49.468;10.992;2024-01-25T07:21:01;7.30;99.90
14093;DHT22;7123;49.468;10.992;2024-01-25T07:23:33;7.50;99.90
14093;DHT22;7123;49.468;10.992;2024-01-25T07:26:00;7.20;99.90
14093;DHT22;7123;49.468;10.992;2024-01-25T07:28:27;7.20;99.90
14093;DHT22;7123;49.468;10.992;2024-01-25T07:30:54;7.20;99.90
14093;DHT22;7123;49.468;10.992;2024-01-25T07:33:21;7.20;99.90
14093;DHT22;7123;49.468;10.992;2024-01-25T07:35:48;7.20;99.90
14093;DHT22;7123;49.468;10.992;2024-01-25T07:38:15;7.10;99.90
14093;DHT22;7123;49.468;10.992;2024-01-25T07:40:42;7.20;99.90
14093;DHT22;7123;49.468;10.992;2024-01-25T07:43:09;7.10;99.90
14093;DHT22;7123;49.468;10.992;2024-01-25T07:45:36;7.10;99.90
14093;DHT22;7123;49.468;10.992;2024-01-25T07:48:03;7.10;99.90
14093;DHT22;7123;49.468;10.992;2024-01-25T07:50:40;7.20;99.90
14093;DHT22;7123;49.468;10.992;2024-01-25T07:53:07;7.30;99.90
14093;DHT22;7123;49.468;10.992;2024-01-25T07:55:34;7.30;99.90
14093;DHT22;7123;49.468;10.992;2024-01-25T07:58:01;7.30;99.90
14093;DHT22;7123;49.468;10.992;2024-01-25T08:00:28;7.30;99.90
14093;DHT22;7123;49.468;10.992;2024-01-25T08:02:55;7.40;99.90
14093;DHT22;7123;49.468;10.992;2024-01-25T08:05:22;7.40;99.90
14093;DHT22;7123;49.468;10.992;2024-01-25T08:07:59;7.60;99.90
14093;DHT22;7123;49.468;10.992;2024-01-25T08:10:26;7.40;99.90
14093;DHT22;7123;49.468;10.992;2024-01-25T08:12:53;7.40;99.90
14093;DHT22;7123;49.468;10.992;2024-01-25T08:15:32;7.60;99.90
14093;DHT22;7123;49.468;10.992;2024-01-25T08:17:59;7.40;99.90
14093;DHT22;7123;49.468;10.992;2024-01-25T08:20:26;7.40;99.90
14093;DHT22;7123;49.468;10.992;2024-01-25T08:22:53;7.40;99.90
14093;DHT22;7123;49.468;10.992;2024-01-25T08:25:19;7.40;99.90
14093;DHT22;7123;49.468;10.992;2024-01-25T08:27:47;7.40;99.90
14093;DHT22;7123;49.468;10.992;2024-01-25T08:30:14;7.40;99.90
14093;DHT22;7123;49.468;10.992;2024-01-25T08:32:41;7.40;99.90
14093;DHT22;7123;49.468;10.992;2024-01-25T08:35:08;7.40;99.90
14093;DHT22;7123;49.468;10.992;2024-01-25T08:37:35;7.40;99.90
14093;DHT22;7123;49.468;10.992;2024-01-25T08:40:04;7.40;99.90
14093;DHT22;7123;49.468;10.992;2024-01-25T08:42:33;7.40;99.90
14093;DHT22;7123;49.468;10.992;2024-01-25T08:45:00;7.50;99.90
14093;DHT22;7123;49.468;10.992;2024-01-25T08:47:26;7.50;99.90
14093;DHT22;7123;49.468;10.992;2024-01-25T08:49:53;7.50;99.90
14093;DHT22;7123;49.468;10.992;2024-01-25T08:52:20;7.60;99.90
14093;DHT22;7123;49.468;10.992;2024-01-25T08:54:47;7.60;99.90
14093;DHT22;7123;49.468;10.992;2024-01-25T08:57:15;7.60;99.90
14093;DHT22;7123;49.468;10.992;2024-01-25T08:59:42;7.70;99.90
14093;DHT22;7123;49.468;10.992;2024-01-25T09:02:08;7.70;99.90
14093;DHT22;7123;49.468;10.992;2024-01-25T09:04:35;7.70;99.90
14093;DHT22;7123;49.468;10.992;2024-01-25T09:07:04;7.70;99.90
14093;DHT22;7123;49.468;10.992;2024-01-25T09:09:31;7.80;99.90
14093;DHT22;7123;49.468;10.992;2024-01-25T09:11:57;7.80;99.90
14093;DHT22;7123;49.468;10.992;2024-01-25T09:14:24;7.80;99.90
14093;DHT22;7123;49.468;10.992;2024-01-25T09:16:51;7.80;99.90
14093;DHT22;7123;49.468;10.992;2024-01-25T09:19:18;7.80;99.90
14093;DHT22;7123;49.468;10.992;2024-01-25T09:21:45;7.80;99.90
14093;DHT22;7123;49.468;10.992;2024-01-25T09:24:12;7.80;99.90
14093;DHT22;7123;49.468;10.992;2024-01-25T09:26:39;7.80;99.90
14093;DHT22;7123;49.468;10.992;2024-01-25T09:29:05;7.90;99.90
14093;DHT22;7123;49.468;10.992;2024-01-25T09:31:32;7.90;99.90
14093;DHT22;7123;49.468;10.992;2024-01-25T09:33:59;8.00;99.90
14093;DHT22;7123;49.468;10.992;2024-01-25T09:36:26;8.00;99.90
14093;DHT22;7123;49.468;10.992;2024-01-25T09:38:53;8.00;99.90
14093;DHT22;7123;49.468;10.992;2024-01-25T09:41:20;8.20;99.90
14093;DHT22;7123;49.468;10.992;2024-01-25T09:43:48;8.10;99.90
14093;DHT22;7123;49.468;10.992;2024-01-25T09:46:15;8.10;99.90
14093;DHT22;7123;49.468;10.992;2024-01-25T09:48:44;8.10;99.90
14093;DHT22;7123;49.468;10.992;2024-01-25T09:51:13;8.10;99.90
14093;DHT22;7123;49.468;10.992;2024-01-25T09:53:41;8.10;99.90
14093;DHT22;7123;49.468;10.992;2024-01-25T09:56:10;8.20;99.90
14093;DHT22;7123;49.468;10.992;2024-01-25T10:01:09;8.20;99.90
14093;DHT22;7123;49.468;10.992;2024-01-25T10:03:42;8.30;99.90
14093;DHT22;7123;49.468;10.992;2024-01-25T10:06:14;8.30;99.90
14093;DHT22;7123;49.468;10.992;2024-01-25T10:08:41;8.30;99.90
14093;DHT22;7123;49.468;10.992;2024-01-25T10:11:09;8.30;99.90
14093;DHT22;7123;49.468;10.992;2024-01-25T10:13:48;8.40;99.90
14093;DHT22;7123;49.468;10.992;2024-01-25T10:16:18;8.30;99.90
14093;DHT22;7123;49.468;10.992;2024-01-25T10:18:47;8.40;99.90
14093;DHT22;7123;49.468;10.992;2024-01-25T10:21:15;8.40;99.90
14093;DHT22;7123;49.468;10.992;2024-01-25T10:23:45;8.30;99.90
14093;DHT22;7123;49.468;10.992;2024-01-25T10:26:13;8.40;99.90
14093;DHT22;7123;49.468;10.992;2024-01-25T10:28:40;8.40;99.90
14093;DHT22;7123;49.468;10.992;2024-01-25T10:31:08;8.50;99.90
14093;DHT22;7123;49.468;10.992;2024-01-25T10:33:38;8.50;99.90
14093;DHT22;7123;49.468;10.992;2024-01-25T10:36:08;8.40;99.90
14093;DHT22;7123;49.468;10.992;2024-01-25T10:38:36;8.50;99.90
14093;DHT22;7123;49.468;10.992;2024-01-25T10:41:05;8.60;99.90
14093;DHT22;7123;49.468;10.992;2024-01-25T10:43:34;8.80;99.90
14093;DHT22;7123;49.468;10.992;2024-01-25T10:46:02;8.70;99.90
14093;DHT22;7123;49.468;10.992;2024-01-25T10:48:31;8.70;99.90
14093;DHT22;7123;49.468;10.992;2024-01-25T10:50:59;8.80;99.90
14093;DHT22;7123;49.468;10.992;2024-01-25T10:53:32;8.50;99.90
14093;DHT22;7123;49.468;10.992;2024-01-25T10:56:00;8.50;99.90
14093;DHT22;7123;49.468;10.992;2024-01-25T10:58:33;8.50;99.90
14093;DHT22;7123;49.468;10.992;2024-01-25T11:01:08;8.60;99.90
14093;DHT22;7123;49.468;10.992;2024-01-25T11:03:42;8.60;99.90
14093;DHT22;7123;49.468;10.992;2024-01-25T11:06:10;8.70;99.90
14093;DHT22;7123;49.468;10.992;2024-01-25T11:08:39;8.70;99.90
14093;DHT22;7123;49.468;10.992;2024-01-25T11:11:07;8.70;99.90
14093;DHT22;7123;49.468;10.992;2024-01-25T11:13:44;8.60;99.90
14093;DHT22;7123;49.468;10.992;2024-01-25T11:16:33;8.60;99.90
14093;DHT22;7123;49.468;10.992;2024-01-25T11:19:02;8.60;99.90
14093;DHT22;7123;49.468;10.992;2024-01-25T11:21:45;8.70;99.90
14093;DHT22;7123;49.468;10.992;2024-01-25T11:24:17;8.70;99.90
14093;DHT22;7123;49.468;10.992;2024-01-25T11:26:46;8.80;99.90
14093;DHT22;7123;49.468;10.992;2024-01-25T11:29:15;8.70;99.90
14093;DHT22;7123;49.468;10.992;2024-01-25T11:31:44;8.70;99.90
14093;DHT22;7123;49.468;10.992;2024-01-25T11:34:12;8.70;99.90
14093;DHT22;7123;49.468;10.992;2024-01-25T11:36:39;8.70;99.90
14093;DHT22;7123;49.468;10.992;2024-01-25T11:39:08;8.80;99.90
14093;DHT22;7123;49.468;10.992;2024-01-25T11:41:36;8.70;99.90
14093;DHT22;7123;49.468;10.992;2024-01-25T11:44:03;8.70;99.90
14093;DHT22;7123;49.468;10.992;2024-01-25T11:46:33;8.80;99.90
14093;DHT22;7123;49.468;10.992;2024-01-25T11:49:04;8.80;99.90
14093;DHT22;7123;49.468;10.992;2024-01-25T11:51:31;8.70;99.90
14093;DHT22;7123;49.468;10.992;2024-01-25T11:53:58;8.80;99.90
14093;DHT22;7123;49.468;10.992;2024-01-25T11:56:31;8.80;99.90
14093;DHT22;7123;49.468;10.992;2024-01-25T11:58:58;8.80;99.90
14093;DHT22;7123;49.468;10.992;2024-01-25T12:01:25;8.80;99.90
14093;DHT22;7123;49.468;10.992;2024-01-25T12:03:53;8.80;99.90
14093;DHT22;7123;49.468;10.992;2024-01-25T12:06:21;8.80;99.90
14093;DHT22;7123;49.468;10.992;2024-01-25T12:08:48;8.70;99.90
14093;DHT22;7123;49.468;10.992;2024-01-25T12:11:15;8.80;99.90
14093;DHT22;7123;49.468;10.992;2024-01-25T12:13:44;8.80;99.90
14093;DHT22;7123;49.468;10.992;2024-01-25T12:16:12;8.80;99.90
14093;DHT22;7123;49.468;10.992;2024-01-25T12:18:42;8.80;99.90
14093;DHT22;7123;49.468;10.992;2024-01-25T12:21:09;8.80;99.90
14093;DHT22;7123;49.468;10.992;2024-01-25T12:23:38;8.80;99.90
14093;DHT22;7123;49.468;10.992;2024-01-25T12:26:06;8.80;99.90
14093;DHT22;7123;49.468;10.992;2024-01-25T12:28:35;8.80;99.90
14093;DHT22;7123;49.468;10.992;2024-01-25T12:31:03;9.00;99.90
14093;DHT22;7123;49.468;10.992;2024-01-25T12:33:31;8.80;99.90
14093;DHT22;7123;49.468;10.992;2024-01-25T12:35:59;8.80;99.90
14093;DHT22;7123;49.468;10.992;2024-01-25T12:38:27;8.80;99.90
14093;DHT22;7123;49.468;10.992;2024-01-25T12:40:55;8.80;99.90
14093;DHT22;7123;49.468;10.992;2024-01-25T12:43:22;8.80;99.90
14093;DHT22;7123;49.468;10.992;2024-01-25T12:45:49;8.80;99.90
14093;DHT22;7123;49.468;10.992;2024-01-25T12:48:18;8.80;99.90
14093;DHT22;7123;49.468;10.992;2024-01-25T12:50:45;8.80;99.90
14093;DHT22;7123;49.468;10.992;2024-01-25T12:53:13;8.80;99.90
14093;DHT22;7123;49.468;10.992;2024-01-25T12:55:41;8.80;99.90
14093;DHT22;7123;49.468;10.992;2024-01-25T12:58:08;8.80;99.90
14093;DHT22;7123;49.468;10.992;2024-01-25T13:00:35;8.80;99.90
14093;DHT22;7123;49.468;10.992;2024-01-25T13:03:02;8.80;99.90
14093;DHT22;7123;49.468;10.992;2024-01-25T13:05:30;8.90;99.90
14093;DHT22;7123;49.468;10.992;2024-01-25T13:08:01;8.90;99.90
14093;DHT22;7123;49.468;10.992;2024-01-25T13:10:29;9.00;99.90
14093;DHT22;7123;49.468;10.992;2024-01-25T13:12:57;9.10;99.90
14093;DHT22;7123;49.468;10.992;2024-01-25T13:15:24;9.10;99.90
14093;DHT22;7123;49.468;10.992;2024-01-25T13:17:51;9.10;99.90
14093;DHT22;7123;49.468;10.992;2024-01-25T13:20:18;9.20;99.90
14093;DHT22;7123;49.468;10.992;2024-01-25T13:22:45;9.20;99.90
14093;DHT22;7123;49.468;10.992;2024-01-25T13:25:11;9.20;99.90
14093;DHT22;7123;49.468;10.992;2024-01-25T13:27:38;9.20;99.90
14093;DHT22;7123;49.468;10.992;2024-01-25T13:30:05;9.20;99.90
14093;DHT22;7123;49.468;10.992;2024-01-25T13:32:32;9.20;99.90
14093;DHT22;7123;49.468;10.992;2024-01-25T13:34:59;9.20;99.90
14093;DHT22;7123;49.468;10.992;2024-01-25T13:37:26;9.20;99.90
14093;DHT22;7123;49.468;10.992;2024-01-25T13:39:53;9.20;99.90
14093;DHT22;7123;49.468;10.992;2024-01-25T13:42:19;9.20;99.90
14093;DHT22;7123;49.468;10.992;2024-01-25T13:44:46;9.10;99.90
14093;DHT22;7123;49.468;10.992;2024-01-25T13:47:13;9.10;99.90
14093;DHT22;7123;49.468;10.992;2024-01-25T13:49:40;9.10;99.90
14093;DHT22;7123;49.468;10.992;2024-01-25T13:52:06;9.10;99.90
14093;DHT22;7123;49.468;10.992;2024-01-25T13:54:33;9.10;99.90
14093;DHT22;7123;49.468;10.992;2024-01-25T13:57:01;9.10;99.90
14093;DHT22;7123;49.468;10.992;2024-01-25T13:59:27;9.10;99.90
14093;DHT22;7123;49.468;10.992;2024-01-25T14:01:54;9.10;99.90
14093;DHT22;7123;49.468;10.992;2024-01-25T14:04:21;9.10;99.90
14093;DHT22;7123;49.468;10.992;2024-01-25T14:06:49;9.10;99.90
14093;DHT22;7123;49.468;10.992;2024-01-25T14:09:16;9.10;99.90
14093;DHT22;7123;49.468;10.992;2024-01-25T14:11:42;9.10;99.90
14093;DHT22;7123;49.468;10.992;2024-01-25T14:14:09;9.10;99.90
14093;DHT22;7123;49.468;10.992;2024-01-25T14:16:36;9.00;99.90
14093;DHT22;7123;49.468;10.992;2024-01-25T14:19:03;9.10;99.90
14093;DHT22;7123;49.468;10.992;2024-01-25T14:21:31;9.10;99.90
14093;DHT22;7123;49.468;10.992;2024-01-25T14:23:58;9.10;99.90
14093;DHT22;7123;49.468;10.992;2024-01-25T14:26:25;9.10;99.90
14093;DHT22;7123;49.468;10.992;2024-01-25T14:28:52;9.10;99.90
14093;DHT22;7123;49.468;10.992;2024-01-25T14:31:19;9.10;99.90
14093;DHT22;7123;49.468;10.992;2024-01-25T14:33:45;9.10;99.90
14093;DHT22;7123;49.468;10.992;2024-01-25T14:36:13;9.10;99.90
14093;DHT22;7123;49.468;10.992;2024-01-25T14:38:41;9.10;99.90
14093;DHT22;7123;49.468;10.992;2024-01-25T14:41:09;9.20;99.90
14093;DHT22;7123;49.468;10.992;2024-01-25T14:43:37;9.10;99.90
14093;DHT22;7123;49.468;10.992;2024-01-25T14:46:06;9.10;99.90
14093;DHT22;7123;49.468;10.992;2024-01-25T14:48:33;9.10;99.90
14093;DHT22;7123;49.468;10.992;2024-01-25T14:51:00;9.20;99.90
14093;DHT22;7123;49.468;10.992;2024-01-25T14:53:27;9.50;99.90
14093;DHT22;7123;49.468;10.992;2024-01-25T14:55:54;9.20;99.90
14093;DHT22;7123;49.468;10.992;2024-01-25T14:58:21;9.10;99.90
14093;DHT22;7123;49.468;10.992;2024-01-25T15:00:51;9.10;99.90
14093;DHT22;7123;49.468;10.992;2024-01-25T15:03:19;9.00;99.90
14093;DHT22;7123;49.468;10.992;2024-01-25T15:05:46;9.00;99.90
14093;DHT22;7123;49.468;10.992;2024-01-25T15:08:13;9.00;99.90
14093;DHT22;7123;49.468;10.992;2024-01-25T15:10:40;8.90;99.90
14093;DHT22;7123;49.468;10.992;2024-01-25T15:13:07;8.90;99.90
14093;DHT22;7123;49.468;10.992;2024-01-25T15:15:34;8.90;99.90
14093;DHT22;7123;49.468;10.992;2024-01-25T15:18:01;8.90;99.90
14093;DHT22;7123;49.468;10.992;2024-01-25T15:20:28;8.90;99.90
14093;DHT22;7123;49.468;10.992;2024-01-25T15:22:55;8.90;99.90
14093;DHT22;7123;49.468;10.992;2024-01-25T15:25:27;8.90;99.90
14093;DHT22;7123;49.468;10.992;2024-01-25T15:27:53;8.80;99.90
14093;DHT22;7123;49.468;10.992;2024-01-25T15:30:21;9.10;99.90
14093;DHT22;7123;49.468;10.992;2024-01-25T15:32:47;8.80;99.90
14093;DHT22;7123;49.468;10.992;2024-01-25T15:35:14;8.80;99.90
14093;DHT22;7123;49.468;10.992;2024-01-25T15:37:41;8.80;99.90
14093;DHT22;7123;49.468;10.992;2024-01-25T15:40:09;8.80;99.90
14093;DHT22;7123;49.468;10.992;2024-01-25T15:42:42;8.80;99.90
14093;DHT22;7123;49.468;10.992;2024-01-25T15:45:10;8.80;99.90
14093;DHT22;7123;49.468;10.992;2024-01-25T15:47:37;8.70;99.90
14093;DHT22;7123;49.468;10.992;2024-01-25T15:50:05;8.70;99.90